sensor_id;sensor_type;location;lat;lon;timestamp;pressure;altitude;pressure_sealevel;temperature;humidity
26775;BME280;14362;51.902;7.626;2023-01-20T00:01:13;100399.06;;;1.69;100.00
26775;BME280;14362;51.902;7.626;2023-01-20T00:05:16;100405.91;;;1.71;100.00
26775;BME280;14362;51.902;7.626;2023-01-20T00:09:17;100404.56;;;1.69;100.00
26775;BME280;14362;51.902;7.626;2023-01-20T00:13:19;100395.22;;;1.70;100.00
26775;BME280;14362;51.902;7.626;2023-01-20T00:17:20;100405.38;;;1.69;100.00
26775;BME280;14362;51.902;7.626;2023-01-20T00:21:23;100402.09;;;1.67;100.00
26775;BME280;14362;51.902;7.626;2023-01-20T00:25:24;100402.09;;;1.67;100.00
26775;BME280;14362;51.902;7.626;2023-01-20T00:29:26;100410.59;;;1.66;100.00
26775;BME280;14362;51.902;7.626;2023-01-20T00:33:28;100412.50;;;1.70;100.00
26775;BME280;14362;51.902;7.626;2023-01-20T00:37:31;100420.75;;;1.70;100.00
26775;BME280;14362;51.902;7.626;2023-01-20T00:41:33;100412.50;;;1.70;100.00
26775;BME280;14362;51.902;7.626;2023-01-20T00:45:34;100422.69;;;1.70;100.00
26775;BME280;14362;51.902;7.626;2023-01-20T00:49:36;100418.84;;;1.71;100.00
26775;BME280;14362;51.902;7.626;2023-01-20T00:53:38;100417.72;;;1.67;100.00
26775;BME280;14362;51.902;7.626;2023-01-20T00:57:40;100422.13;;;1.68;100.00
26775;BME280;14362;51.902;7.626;2023-01-20T01:01:41;100428.97;;;1.70;100.00
26775;BME280;14362;51.902;7.626;2023-01-20T01:05:44;100430.91;;;1.70;100.00
26775;BME280;14362;51.902;7.626;2023-01-20T01:09:47;100431.47;;;1.72;100.00
26775;BME280;14362;51.902;7.626;2023-01-20T01:13:49;100433.13;;;1.68;100.00
26775;BME280;14362;51.902;7.626;2023-01-20T01:17:50;100428.47;;;1.68;100.00
26775;BME280;14362;51.902;7.626;2023-01-20T01:21:52;100443.84;;;1.69;100.00
26775;BME280;14362;51.902;7.626;2023-01-20T01:25:55;100446.59;;;1.69;100.00
26775;BME280;14362;51.902;7.626;2023-01-20T01:29:56;100455.94;;;1.68;100.00
26775;BME280;14362;51.902;7.626;2023-01-20T01:33:58;100464.97;;;1.69;100.00
26775;BME280;14362;51.902;7.626;2023-01-20T01:37:59;100470.47;;;1.69;100.00
26775;BME280;14362;51.902;7.626;2023-01-20T01:42:02;100468.84;;;1.73;100.00
26775;BME280;14362;51.902;7.626;2023-01-20T01:46:04;100469.38;;;1.70;100.00
26775;BME280;14362;51.902;7.626;2023-01-20T01:50:08;100471.31;;;1.69;100.00
26775;BME280;14362;51.902;7.626;2023-01-20T01:54:15;100485.03;;;1.74;100.00
26775;BME280;14362;51.902;7.626;2023-01-20T01:58:19;100491.38;;;1.75;100.00
26775;BME280;14362;51.902;7.626;2023-01-20T02:02:23;100484.78;;;1.76;100.00
26775;BME280;14362;51.902;7.626;2023-01-20T02:06:31;100482.03;;;1.76;100.00
26775;BME280;14362;51.902;7.626;2023-01-20T02:10:33;100482.28;;;1.74;100.00
26775;BME280;14362;51.902;7.626;2023-01-20T02:14:39;100486.13;;;1.73;100.00
26775;BME280;14362;51.902;7.626;2023-01-20T02:18:52;100484.75;;;1.71;100.00
26775;BME280;14362;51.902;7.626;2023-01-20T02:22:57;100491.06;;;1.71;100.00
26775;BME280;14362;51.902;7.626;2023-01-20T02:27:07;100493.81;;;1.71;100.00
26775;BME280;14362;51.902;7.626;2023-01-20T02:31:45;100498.50;;;1.71;100.00
26775;BME280;14362;51.902;7.626;2023-01-20T02:35:51;100504.81;;;1.71;100.00
26775;BME280;14362;51.902;7.626;2023-01-20T02:40:05;100507.03;;;1.69;100.00
26775;BME280;14362;51.902;7.626;2023-01-20T02:44:16;100516.31;;;1.58;100.00
26775;BME280;14362;51.902;7.626;2023-01-20T02:48:23;100516.59;;;1.57;100.00
26775;BME280;14362;51.902;7.626;2023-01-20T02:52:29;100526.78;;;1.66;100.00
26775;BME280;14362;51.902;7.626;2023-01-20T02:56:34;100522.66;;;1.64;100.00
26775;BME280;14362;51.902;7.626;2023-01-20T03:00:38;100517.16;;;1.64;100.00
26775;BME280;14362;51.902;7.626;2023-01-20T03:04:46;100524.56;;;1.58;100.00
26775;BME280;14362;51.902;7.626;2023-01-20T03:08:51;100525.13;;;1.60;100.00
26775;BME280;14362;51.902;7.626;2023-01-20T03:12:56;100526.78;;;1.61;100.00
26775;BME280;14362;51.902;7.626;2023-01-20T03:16:58;100539.13;;;1.64;100.00
26775;BME280;14362;51.902;7.626;2023-01-20T03:21:03;100538.31;;;1.63;100.00
26775;BME280;14362;51.902;7.626;2023-01-20T03:25:05;100541.06;;;1.63;100.00
26775;BME280;14362;51.902;7.626;2023-01-20T03:29:08;100547.38;;;1.64;100.00
26775;BME280;14362;51.902;7.626;2023-01-20T03:33:13;100552.63;;;1.65;100.00
26775;BME280;14362;51.902;7.626;2023-01-20T03:37:16;100549.31;;;1.63;100.00
26775;BME280;14362;51.902;7.626;2023-01-20T03:41:25;100545.19;;;1.66;100.00
26775;BME280;14362;51.902;7.626;2023-01-20T03:45:33;100554.25;;;1.66;100.00
26775;BME280;14362;51.902;7.626;2023-01-20T03:49:43;100558.09;;;1.65;100.00
26775;BME280;14362;51.902;7.626;2023-01-20T03:53:51;100555.91;;;1.67;100.00
26775;BME280;14362;51.902;7.626;2023-01-20T03:57:55;100569.38;;;1.69;100.00
26775;BME280;14362;51.902;7.626;2023-01-20T04:02:01;100571.84;;;1.65;100.00
26775;BME280;14362;51.902;7.626;2023-01-20T04:06:04;100572.41;;;1.67;100.00
26775;BME280;14362;51.902;7.626;2023-01-20T04:10:11;100568.00;;;1.66;100.00
26775;BME280;14362;51.902;7.626;2023-01-20T04:14:15;100580.63;;;1.67;100.00
26775;BME280;14362;51.902;7.626;2023-01-20T04:18:18;100578.97;;;1.66;100.00
26775;BME280;14362;51.902;7.626;2023-01-20T04:22:24;100579.78;;;1.67;100.00
26775;BME280;14362;51.902;7.626;2023-01-20T04:26:29;100580.88;;;1.66;100.00
26775;BME280;14362;51.902;7.626;2023-01-20T04:30:30;100579.50;;;1.58;100.00
26775;BME280;14362;51.902;7.626;2023-01-20T04:34:32;100583.91;;;1.64;100.00
26775;BME280;14362;51.902;7.626;2023-01-20T04:38:33;100589.13;;;1.66;100.00
26775;BME280;14362;51.902;7.626;2023-01-20T04:42:37;100592.97;;;1.65;100.00
26775;BME280;14362;51.902;7.626;2023-01-20T04:46:38;100600.41;;;1.64;100.00
26775;BME280;14362;51.902;7.626;2023-01-20T04:50:40;100601.78;;;1.67;100.00
26775;BME280;14362;51.902;7.626;2023-01-20T04:54:42;100593.53;;;1.67;100.00
26775;BME280;14362;51.902;7.626;2023-01-20T04:58:46;100599.31;;;1.65;100.00
26775;BME280;14362;51.902;7.626;2023-01-20T05:02:48;100605.63;;;1.66;100.00
26775;BME280;14362;51.902;7.626;2023-01-20T05:06:49;100617.13;;;1.63;100.00
26775;BME280;14362;51.902;7.626;2023-01-20T05:10:51;100617.69;;;1.65;100.00
26775;BME280;14362;51.902;7.626;2023-01-20T05:14:54;100619.31;;;1.61;100.00
26775;BME280;14362;51.902;7.626;2023-01-20T05:18:55;100612.72;;;1.62;100.00
26775;BME280;14362;51.902;7.626;2023-01-20T05:22:56;100617.69;;;1.60;100.00
26775;BME280;14362;51.902;7.626;2023-01-20T05:26:59;100623.72;;;1.57;100.00
26775;BME280;14362;51.902;7.626;2023-01-20T05:31:02;100626.47;;;1.57;100.00
26775;BME280;14362;51.902;7.626;2023-01-20T05:35:04;100622.34;;;1.59;100.00
26775;BME280;14362;51.902;7.626;2023-01-20T05:39:05;100633.94;;;1.66;100.00
26775;BME280;14362;51.902;7.626;2023-01-20T05:43:07;100636.09;;;1.64;100.00
26775;BME280;14362;51.902;7.626;2023-01-20T05:47:10;100636.09;;;1.64;100.00
26775;BME280;14362;51.902;7.626;2023-01-20T05:51:11;100649.31;;;1.67;100.00
26775;BME280;14362;51.902;7.626;2023-01-20T05:55:13;100656.72;;;1.67;100.00
26775;BME280;14362;51.902;7.626;2023-01-20T05:59:14;100659.47;;;1.67;100.00
26775;BME280;14362;51.902;7.626;2023-01-20T06:03:17;100662.50;;;1.65;100.00
26775;BME280;14362;51.902;7.626;2023-01-20T06:07:18;100667.97;;;1.65;100.00
26775;BME280;14362;51.902;7.626;2023-01-20T06:11:20;100675.66;;;1.63;100.00
26775;BME280;14362;51.902;7.626;2023-01-20T06:15:22;100674.56;;;1.64;100.00
26775;BME280;14362;51.902;7.626;2023-01-20T06:19:25;100681.72;;;1.65;100.00
26775;BME280;14362;51.902;7.626;2023-01-20T06:23:27;100677.00;;;1.61;100.00
26775;BME280;14362;51.902;7.626;2023-01-20T06:27:28;100678.41;;;1.63;100.00
26775;BME280;14362;51.902;7.626;2023-01-20T06:31:30;100678.13;;;1.60;100.00
26775;BME280;14362;51.902;7.626;2023-01-20T06:35:32;100676.19;;;1.60;100.00
26775;BME280;14362;51.902;7.626;2023-01-20T06:39:34;100682.22;;;1.57;100.00
26775;BME280;14362;51.902;7.626;2023-01-20T06:43:35;100682.75;;;1.54;100.00
26775;BME280;14362;51.902;7.626;2023-01-20T06:47:39;100675.38;;;1.60;100.00
26775;BME280;14362;51.902;7.626;2023-01-20T06:51:42;100676.72;;;1.57;100.00
26775;BME280;14362;51.902;7.626;2023-01-20T06:55:52;100689.38;;;1.58;100.00
26775;BME280;14362;51.902;7.626;2023-01-20T06:59:53;100694.31;;;1.61;100.00
26775;BME280;14362;51.902;7.626;2023-01-20T07:03:55;100694.88;;;1.63;100.00
26775;BME280;14362;51.902;7.626;2023-01-20T07:07:58;100696.53;;;1.64;100.00
26775;BME280;14362;51.902;7.626;2023-01-20T07:11:59;100703.94;;;1.64;100.00
26775;BME280;14362;51.902;7.626;2023-01-20T07:16:01;100710.84;;;1.66;100.00
26775;BME280;14362;51.902;7.626;2023-01-20T07:20:03;100716.34;;;1.66;100.00
26775;BME280;14362;51.902;7.626;2023-01-20T07:24:08;100723.22;;;1.69;100.00
26775;BME280;14362;51.902;7.626;2023-01-20T07:28:09;100730.34;;;1.70;100.00
26775;BME280;14362;51.902;7.626;2023-01-20T07:32:10;100731.72;;;1.72;100.00
26775;BME280;14362;51.902;7.626;2023-01-20T07:36:13;100739.97;;;1.72;100.00
26775;BME280;14362;51.902;7.626;2023-01-20T07:40:17;100746.56;;;1.71;100.00
26775;BME280;14362;51.902;7.626;2023-01-20T07:44:18;100750.16;;;1.72;100.00
26775;BME280;14362;51.902;7.626;2023-01-20T07:48:20;100762.78;;;1.73;100.00
26775;BME280;14362;51.902;7.626;2023-01-20T07:52:21;100763.06;;;1.76;100.00
26775;BME280;14362;51.902;7.626;2023-01-20T07:56:25;100769.66;;;1.75;100.00
26775;BME280;14362;51.902;7.626;2023-01-20T08:00:28;100775.72;;;1.77;100.00
26775;BME280;14362;51.902;7.626;2023-01-20T08:04:31;100774.09;;;1.81;100.00
26775;BME280;14362;51.902;7.626;2023-01-20T08:08:34;100772.16;;;1.82;100.00
26775;BME280;14362;51.902;7.626;2023-01-20T08:12:37;100781.50;;;1.81;100.00
26775;BME280;14362;51.902;7.626;2023-01-20T08:16:38;100779.31;;;1.83;100.00
26775;BME280;14362;51.902;7.626;2023-01-20T08:20:39;100783.16;;;1.82;100.00
26775;BME280;14362;51.902;7.626;2023-01-20T08:24:41;100796.09;;;1.81;100.00
26775;BME280;14362;51.902;7.626;2023-01-20T08:28:44;100804.91;;;1.83;100.00
26775;BME280;14362;51.902;7.626;2023-01-20T08:32:45;100811.78;;;1.86;100.00
26775;BME280;14362;51.902;7.626;2023-01-20T08:36:47;100807.38;;;1.85;100.00
26775;BME280;14362;51.902;7.626;2023-01-20T08:40:49;100812.63;;;1.91;100.00
26775;BME280;14362;51.902;7.626;2023-01-20T08:44:52;100818.16;;;1.96;100.00
26775;BME280;14362;51.902;7.626;2023-01-20T08:48:53;100823.94;;;1.99;100.00
26775;BME280;14362;51.902;7.626;2023-01-20T08:52:55;100824.50;;;2.01;100.00
26775;BME280;14362;51.902;7.626;2023-01-20T08:56:56;100829.75;;;2.03;100.00
26775;BME280;14362;51.902;7.626;2023-01-20T09:00:59;100836.63;;;2.05;100.00
26775;BME280;14362;51.902;7.626;2023-01-20T09:05:02;100843.78;;;2.06;100.00
26775;BME280;14362;51.902;7.626;2023-01-20T09:09:04;100841.59;;;2.08;100.00
26775;BME280;14362;51.902;7.626;2023-01-20T09:13:05;100853.41;;;2.09;100.00
26775;BME280;14362;51.902;7.626;2023-01-20T09:17:08;100849.56;;;2.10;100.00
26775;BME280;14362;51.902;7.626;2023-01-20T09:21:10;100843.81;;;2.11;100.00
26775;BME280;14362;51.902;7.626;2023-01-20T09:25:11;100849.59;;;2.15;100.00
26775;BME280;14362;51.902;7.626;2023-01-20T09:29:15;100857.03;;;2.19;100.00
26775;BME280;14362;51.902;7.626;2023-01-20T09:33:17;100863.94;;;2.27;100.00
26775;BME280;14362;51.902;7.626;2023-01-20T09:37:19;100864.22;;;2.25;100.00
26775;BME280;14362;51.902;7.626;2023-01-20T09:41:40;100862.31;;;2.26;100.00
26775;BME280;14362;51.902;7.626;2023-01-20T09:46:07;100875.50;;;2.29;100.00
26775;BME280;14362;51.902;7.626;2023-01-20T09:50:21;100875.56;;;2.34;100.00
26775;BME280;14362;51.902;7.626;2023-01-20T09:54:46;100875.03;;;2.37;100.00
26775;BME280;14362;51.902;7.626;2023-01-20T09:58:54;100873.41;;;2.41;100.00
26775;BME280;14362;51.902;7.626;2023-01-20T10:03:02;100877.81;;;2.47;100.00
26775;BME280;14362;51.902;7.626;2023-01-20T10:07:10;100879.50;;;2.53;100.00
26775;BME280;14362;51.902;7.626;2023-01-20T10:11:15;100887.19;;;2.51;100.00
26775;BME280;14362;51.902;7.626;2023-01-20T10:15:22;100889.69;;;2.57;100.00
26775;BME280;14362;51.902;7.626;2023-01-20T10:19:28;100883.13;;;2.63;100.00
26775;BME280;14362;51.902;7.626;2023-01-20T10:23:39;100888.63;;;2.63;100.00
26775;BME280;14362;51.902;7.626;2023-01-20T10:27:48;100892.78;;;2.71;100.00
26775;BME280;14362;51.902;7.626;2023-01-20T10:31:57;100888.66;;;2.68;100.00
26775;BME280;14362;51.902;7.626;2023-01-20T10:35:59;100888.13;;;2.71;100.00
26775;BME280;14362;51.902;7.626;2023-01-20T10:40:14;100891.97;;;2.80;100.00
26775;BME280;14362;51.902;7.626;2023-01-20T10:44:18;100893.38;;;2.78;100.00
26775;BME280;14362;51.902;7.626;2023-01-20T10:48:30;100883.44;;;2.77;100.00
26775;BME280;14362;51.902;7.626;2023-01-20T10:52:45;100890.06;;;2.86;100.00
26775;BME280;14362;51.902;7.626;2023-01-20T10:56:53;100887.84;;;2.78;100.00
26775;BME280;14362;51.902;7.626;2023-01-20T11:00:56;100892.25;;;2.74;100.00
26775;BME280;14362;51.902;7.626;2023-01-20T11:05:02;100894.75;;;2.80;100.00
26775;BME280;14362;51.902;7.626;2023-01-20T11:09:19;100902.16;;;2.75;100.00
26775;BME280;14362;51.902;7.626;2023-01-20T11:13:22;100893.91;;;2.75;100.00
26775;BME280;14362;51.902;7.626;2023-01-20T11:17:23;100901.34;;;2.79;100.00
26775;BME280;14362;51.902;7.626;2023-01-20T11:21:27;100906.03;;;2.79;100.00
26775;BME280;14362;51.902;7.626;2023-01-20T11:25:28;100900.53;;;2.89;100.00
26775;BME280;14362;51.902;7.626;2023-01-20T11:29:37;100910.22;;;2.91;100.00
26775;BME280;14362;51.902;7.626;2023-01-20T11:33:53;100914.63;;;2.92;100.00
26775;BME280;14362;51.902;7.626;2023-01-20T11:37:55;100914.34;;;2.94;100.00
26775;BME280;14362;51.902;7.626;2023-01-20T11:42:09;100924.81;;;2.97;100.00
26775;BME280;14362;51.902;7.626;2023-01-20T11:46:21;100921.22;;;2.91;100.00
26775;BME280;14362;51.902;7.626;2023-01-20T11:50:26;100923.16;;;2.96;100.00
26775;BME280;14362;51.902;7.626;2023-01-20T11:54:28;100922.63;;;2.99;100.00
26775;BME280;14362;51.902;7.626;2023-01-20T11:58:31;100923.16;;;3.05;100.00
26775;BME280;14362;51.902;7.626;2023-01-20T12:02:35;100925.94;;;3.10;100.00
26775;BME280;14362;51.902;7.626;2023-01-20T12:06:43;100929.25;;;3.12;100.00
26775;BME280;14362;51.902;7.626;2023-01-20T12:10:48;100933.13;;;3.16;100.00
26775;BME280;14362;51.902;7.626;2023-01-20T12:14:53;100933.47;;;3.30;100.00
26775;BME280;14362;51.902;7.626;2023-01-20T12:19:03;100941.69;;;3.25;100.00
26775;BME280;14362;51.902;7.626;2023-01-20T12:23:14;100938.38;;;3.23;100.00
26775;BME280;14362;51.902;7.626;2023-01-20T12:27:24;100944.44;;;3.25;100.00
26775;BME280;14362;51.902;7.626;2023-01-20T12:31:28;100945.56;;;3.29;100.00
26775;BME280;14362;51.902;7.626;2023-01-20T12:35:39;100940.31;;;3.27;100.00
26775;BME280;14362;51.902;7.626;2023-01-20T12:40:07;100946.91;;;3.26;100.00
26775;BME280;14362;51.902;7.626;2023-01-20T12:44:16;100953.81;;;3.34;100.00
26775;BME280;14362;51.902;7.626;2023-01-20T12:48:28;100959.06;;;3.35;100.00
26775;BME280;14362;51.902;7.626;2023-01-20T12:52:45;100958.78;;;3.37;100.00
26775;BME280;14362;51.902;7.626;2023-01-20T12:56:57;100968.16;;;3.36;100.00
26775;BME280;14362;51.902;7.626;2023-01-20T13:01:24;100965.13;;;3.32;100.00
26775;BME280;14362;51.902;7.626;2023-01-20T13:05:58;100967.03;;;3.32;100.00
26775;BME280;14362;51.902;7.626;2023-01-20T13:10:22;100970.38;;;3.39;100.00
26775;BME280;14362;51.902;7.626;2023-01-20T13:14:32;100972.84;;;3.30;100.00
26775;BME280;14362;51.902;7.626;2023-01-20T13:18:51;100970.06;;;3.30;100.00
26775;BME280;14362;51.902;7.626;2023-01-20T13:22:59;100977.53;;;3.30;100.00
26775;BME280;14362;51.902;7.626;2023-01-20T13:27:04;100972.84;;;3.35;100.00
26775;BME280;14362;51.902;7.626;2023-01-20T13:31:28;100986.38;;;3.42;100.00
26775;BME280;14362;51.902;7.626;2023-01-20T13:35:44;100987.75;;;3.39;100.00
26775;BME280;14362;51.902;7.626;2023-01-20T13:39:46;100996.00;;;3.34;100.00
26775;BME280;14362;51.902;7.626;2023-01-20T13:43:49;100997.66;;;3.45;100.00
26775;BME280;14362;51.902;7.626;2023-01-20T13:57:33;101009.50;;;3.41;100.00
26775;BME280;14362;51.902;7.626;2023-01-20T14:01:37;101019.69;;;3.40;100.00
26775;BME280;14362;51.902;7.626;2023-01-20T14:05:38;101023.00;;;3.42;100.00
26775;BME280;14362;51.902;7.626;2023-01-20T14:09:50;101026.31;;;3.44;100.00
26775;BME280;14362;51.902;7.626;2023-01-20T14:13:53;101036.22;;;3.40;100.00
26775;BME280;14362;51.902;7.626;2023-01-20T14:17:57;101043.94;;;3.38;100.00
26775;BME280;14362;51.902;7.626;2023-01-20T14:22:01;101048.34;;;3.34;100.00
26775;BME280;14362;51.902;7.626;2023-01-20T14:26:05;101046.13;;;3.36;100.00
26775;BME280;14362;51.902;7.626;2023-01-20T14:30:17;101054.66;;;3.30;100.00
26775;BME280;14362;51.902;7.626;2023-01-20T14:34:25;101048.88;;;3.31;100.00
26775;BME280;14362;51.902;7.626;2023-01-20T14:38:28;101058.81;;;3.37;100.00
26775;BME280;14362;51.902;7.626;2023-01-20T14:42:29;101072.00;;;3.30;100.00
26775;BME280;14362;51.902;7.626;2023-01-20T14:46:32;101078.31;;;3.26;100.00
26775;BME280;14362;51.902;7.626;2023-01-20T14:50:36;101083.56;;;3.27;100.00
26775;BME280;14362;51.902;7.626;2023-01-20T14:54:42;101091.78;;;3.17;100.00
26775;BME280;14362;51.902;7.626;2023-01-20T14:58:44;101100.59;;;3.19;100.00
26775;BME280;14362;51.902;7.626;2023-01-20T15:02:48;101096.75;;;3.20;100.00
26775;BME280;14362;51.902;7.626;2023-01-20T15:06:52;101111.00;;;3.12;100.00
26775;BME280;14362;51.902;7.626;2023-01-20T15:11:17;101112.13;;;3.11;100.00
26775;BME280;14362;51.902;7.626;2023-01-20T15:15:28;101122.59;;;3.14;100.00
26775;BME280;14362;51.902;7.626;2023-01-20T15:19:33;101117.91;;;3.15;100.00
26775;BME280;14362;51.902;7.626;2023-01-20T15:23:36;101133.28;;;3.06;100.00
26775;BME280;14362;51.902;7.626;2023-01-20T15:27:40;101140.19;;;3.08;100.00
26775;BME280;14362;51.902;7.626;2023-01-20T15:31:41;101149.50;;;3.02;100.00
26775;BME280;14362;51.902;7.626;2023-01-20T15:35:43;101159.13;;;3.00;100.00
26775;BME280;14362;51.902;7.626;2023-01-20T15:39:45;101158.88;;;3.06;100.00
26775;BME280;14362;51.902;7.626;2023-01-20T15:43:47;101167.72;;;3.08;100.00
26775;BME280;14362;51.902;7.626;2023-01-20T15:47:51;101176.47;;;3.01;100.00
26775;BME280;14362;51.902;7.626;2023-01-20T15:51:53;101183.28;;;2.93;100.00
26775;BME280;14362;51.902;7.626;2023-01-20T15:55:55;101180.00;;;2.91;100.00
26775;BME280;14362;51.902;7.626;2023-01-20T15:59:57;101192.28;;;2.84;100.00
26775;BME280;14362;51.902;7.626;2023-01-20T16:03:58;101188.66;;;2.73;100.00
26775;BME280;14362;51.902;7.626;2023-01-20T16:07:59;101190.72;;;2.61;100.00
26775;BME280;14362;51.902;7.626;2023-01-20T16:12:03;101199.72;;;2.52;100.00
26775;BME280;14362;51.902;7.626;2023-01-20T16:16:09;101212.31;;;2.48;100.00
26775;BME280;14362;51.902;7.626;2023-01-20T16:20:18;101221.16;;;2.50;100.00
26775;BME280;14362;51.902;7.626;2023-01-20T16:24:19;101230.34;;;2.34;100.00
26775;BME280;14362;51.902;7.626;2023-01-20T16:28:22;101228.00;;;2.21;100.00
26775;BME280;14362;51.902;7.626;2023-01-20T16:32:24;101236.63;;;2.08;100.00
26775;BME280;14362;51.902;7.626;2023-01-20T16:36:26;101247.00;;;2.01;100.00
26775;BME280;14362;51.902;7.626;2023-01-20T16:40:27;101254.09;;;1.97;100.00
26775;BME280;14362;51.902;7.626;2023-01-20T16:44:31;101259.47;;;1.87;100.00
26775;BME280;14362;51.902;7.626;2023-01-20T16:48:33;101268.75;;;1.81;100.00
26775;BME280;14362;51.902;7.626;2023-01-20T16:52:34;101280.16;;;1.73;100.00
26775;BME280;14362;51.902;7.626;2023-01-20T16:56:35;101287.31;;;1.74;100.00
26775;BME280;14362;51.902;7.626;2023-01-20T17:00:39;101301.50;;;1.66;100.00
26775;BME280;14362;51.902;7.626;2023-01-20T17:04:40;101298.59;;;1.56;100.00
26775;BME280;14362;51.902;7.626;2023-01-20T17:08:42;101297.94;;;1.49;100.00
26775;BME280;14362;51.902;7.626;2023-01-20T17:12:44;101323.75;;;1.48;100.00
26775;BME280;14362;51.902;7.626;2023-01-20T17:16:47;101324.91;;;1.36;100.00
26775;BME280;14362;51.902;7.626;2023-01-20T17:20:48;101335.22;;;1.29;100.00
26775;BME280;14362;51.902;7.626;2023-01-20T17:24:49;101349.38;;;1.21;100.00
26775;BME280;14362;51.902;7.626;2023-01-20T17:28:53;101347.78;;;1.08;100.00
26775;BME280;14362;51.902;7.626;2023-01-20T17:32:56;101358.19;;;1.06;100.00
26775;BME280;14362;51.902;7.626;2023-01-20T17:36:57;101363.84;;;1.00;100.00
26775;BME280;14362;51.902;7.626;2023-01-20T17:40:59;101356.56;;;0.94;100.00
26775;BME280;14362;51.902;7.626;2023-01-20T17:45:01;101368.38;;;0.95;100.00
26775;BME280;14362;51.902;7.626;2023-01-20T17:49:04;101372.88;;;0.84;100.00
26775;BME280;14362;51.902;7.626;2023-01-20T17:53:06;101376.81;;;0.77;100.00
26775;BME280;14362;51.902;7.626;2023-01-20T17:57:08;101383.78;;;0.68;100.00
26775;BME280;14362;51.902;7.626;2023-01-20T18:01:11;101386.19;;;0.64;100.00
26775;BME280;14362;51.902;7.626;2023-01-20T18:05:14;101392.00;;;0.68;100.00
26775;BME280;14362;51.902;7.626;2023-01-20T18:09:15;101405.13;;;0.66;100.00
26775;BME280;14362;51.902;7.626;2023-01-20T18:13:17;101416.59;;;0.63;100.00
26775;BME280;14362;51.902;7.626;2023-01-20T18:17:18;101425.66;;;0.63;100.00
26775;BME280;14362;51.902;7.626;2023-01-20T18:21:22;101431.59;;;0.72;100.00
26775;BME280;14362;51.902;7.626;2023-01-20T18:25:24;101431.69;;;0.77;100.00
26775;BME280;14362;51.902;7.626;2023-01-20T18:29:26;101440.50;;;0.79;100.00
26775;BME280;14362;51.902;7.626;2023-01-20T18:33:29;101448.66;;;0.74;100.00
26775;BME280;14362;51.902;7.626;2023-01-20T18:37:34;101449.34;;;0.69;100.00
26775;BME280;14362;51.902;7.626;2023-01-20T18:41:36;101459.50;;;0.69;100.00
26775;BME280;14362;51.902;7.626;2023-01-20T18:45:37;101469.56;;;0.63;100.00
26775;BME280;14362;51.902;7.626;2023-01-20T18:49:38;101470.84;;;0.61;100.00
26775;BME280;14362;51.902;7.626;2023-01-20T18:53:43;101465.84;;;0.58;100.00
26775;BME280;14362;51.902;7.626;2023-01-20T18:57:44;101476.72;;;0.53;100.00
26775;BME280;14362;51.902;7.626;2023-01-20T19:01:46;101484.09;;;0.52;100.00
26775;BME280;14362;51.902;7.626;2023-01-20T19:05:48;101483.75;;;0.60;100.00
26775;BME280;14362;51.902;7.626;2023-01-20T19:09:50;101495.91;;;0.53;100.00
26775;BME280;14362;51.902;7.626;2023-01-20T19:13:52;101503.91;;;0.54;100.00
26775;BME280;14362;51.902;7.626;2023-01-20T19:17:53;101508.91;;;0.46;100.00
26775;BME280;14362;51.902;7.626;2023-01-20T19:21:55;101510.00;;;0.45;100.00
26775;BME280;14362;51.902;7.626;2023-01-20T19:26:01;101523.94;;;0.43;100.00
26775;BME280;14362;51.902;7.626;2023-01-20T19:30:03;101518.81;;;0.35;100.00
26775;BME280;14362;51.902;7.626;2023-01-20T19:34:05;101534.31;;;0.41;100.00
26775;BME280;14362;51.902;7.626;2023-01-20T19:38:07;101538.00;;;0.35;100.00
26775;BME280;14362;51.902;7.626;2023-01-20T19:42:10;101539.34;;;0.33;100.00
26775;BME280;14362;51.902;7.626;2023-01-20T19:46:13;101539.81;;;0.30;100.00
26775;BME280;14362;51.902;7.626;2023-01-20T19:50:15;101562.34;;;0.32;100.00
26775;BME280;14362;51.902;7.626;2023-01-20T19:54:16;101561.72;;;0.30;100.00
26775;BME280;14362;51.902;7.626;2023-01-20T19:58:19;101567.22;;;0.30;100.00
26775;BME280;14362;51.902;7.626;2023-01-20T20:02:21;101573.28;;;0.20;100.00
26775;BME280;14362;51.902;7.626;2023-01-20T20:06:25;101577.69;;;0.21;100.00
26775;BME280;14362;51.902;7.626;2023-01-20T20:10:27;101584.75;;;0.29;100.00
26775;BME280;14362;51.902;7.626;2023-01-20T20:14:30;101593.41;;;0.14;100.00
26775;BME280;14362;51.902;7.626;2023-01-20T20:18:32;101590.66;;;0.14;100.00
26775;BME280;14362;51.902;7.626;2023-01-20T20:22:34;101595.19;;;0.09;100.00
26775;BME280;14362;51.902;7.626;2023-01-20T20:26:36;101602.00;;;0.06;100.00
26775;BME280;14362;51.902;7.626;2023-01-20T20:30:39;101612.47;;;0.09;100.00
26775;BME280;14362;51.902;7.626;2023-01-20T20:34:41;101622.00;;;0.07;100.00
26775;BME280;14362;51.902;7.626;2023-01-20T20:38:45;101617.94;;;-0.02;100.00
26775;BME280;14362;51.902;7.626;2023-01-20T20:42:49;101631.03;;;-0.04;100.00
26775;BME280;14362;51.902;7.626;2023-01-20T20:46:52;101646.03;;;-0.06;100.00
26775;BME280;14362;51.902;7.626;2023-01-20T20:50:53;101641.88;;;0.02;100.00
26775;BME280;14362;51.902;7.626;2023-01-20T20:54:55;101647.94;;;-0.07;100.00
26775;BME280;14362;51.902;7.626;2023-01-20T20:58:56;101662.69;;;-0.08;100.00
26775;BME280;14362;51.902;7.626;2023-01-20T21:03:00;101665.44;;;-0.08;100.00
26775;BME280;14362;51.902;7.626;2023-01-20T21:07:02;101666.16;;;-0.12;100.00
26775;BME280;14362;51.902;7.626;2023-01-20T21:11:05;101674.06;;;-0.22;100.00
26775;BME280;14362;51.902;7.626;2023-01-20T21:15:07;101681.22;;;-0.21;100.00
26775;BME280;14362;51.902;7.626;2023-01-20T21:19:10;101684.06;;;-0.28;100.00
26775;BME280;14362;51.902;7.626;2023-01-20T21:23:12;101689.16;;;-0.31;100.00
26775;BME280;14362;51.902;7.626;2023-01-20T21:27:13;101701.19;;;-0.32;100.00